createdAt,value
2019-04-25T00:00:07.244Z,1138.00
2019-04-25T00:02:40.795Z,946.27
2019-04-25T00:05:11.833Z,1072.80
2019-04-25T00:07:42.570Z,953.70
2019-04-25T00:10:13.804Z,1176.57
2019-04-25T00:12:43.576Z,1072.73
2019-04-25T00:15:13.916Z,1185.27
2019-04-25T00:17:44.212Z,1408.47
2019-04-25T00:20:13.960Z,1298.50
2019-04-25T00:22:44.869Z,1445.80
2019-04-25T00:25:17.872Z,1383.33
2019-04-25T00:27:47.169Z,1498.17
2019-04-25T00:30:16.346Z,1527.90
2019-04-25T00:32:45.387Z,1406.83
2019-04-25T00:35:14.594Z,1486.23
2019-04-25T00:37:45.174Z,1518.83
2019-04-25T00:40:14.380Z,1555.33
2019-04-25T00:42:44.691Z,1508.50
2019-04-25T00:45:14.154Z,1562.90
2019-04-25T00:47:43.869Z,1634.70
2019-04-25T00:50:13.974Z,1702.10
2019-04-25T00:52:44.779Z,1728.07
2019-04-25T00:55:25.928Z,1653.80
2019-04-25T00:57:46.735Z,1715.57
2019-04-25T01:00:17.602Z,1744.27
2019-04-25T01:02:49.393Z,1638.33
2019-04-25T01:05:18.533Z,1757.43
2019-04-25T01:07:47.764Z,1700.57
2019-04-25T01:10:18.117Z,1707.13
2019-04-25T01:28:00.705Z,1881.30
2019-04-25T01:30:30.228Z,1705.77
2019-04-25T01:32:59.265Z,1956.80
2019-04-25T01:35:29.926Z,1732.43
2019-04-25T01:38:00.658Z,1810.27
2019-04-25T01:40:31.350Z,1889.77
2019-04-25T01:43:03.635Z,1853.93
2019-04-25T01:45:34.737Z,1953.77
2019-04-25T01:48:03.916Z,1893.70
2019-04-25T01:50:33.205Z,1943.00
2019-04-25T01:53:03.786Z,1964.73
2019-04-25T01:55:33.564Z,1864.30
2019-04-25T01:58:03.904Z,1724.33
2019-04-25T02:00:34.656Z,1852.17
2019-04-25T02:03:04.569Z,1838.00
2019-04-25T02:05:33.892Z,1863.47
2019-04-25T02:08:05.812Z,1990.57
2019-04-25T02:10:34.448Z,1920.63
2019-04-25T02:13:05.153Z,1970.63
2019-04-25T02:15:34.215Z,1987.67
2019-04-25T02:18:03.792Z,1973.23
2019-04-25T02:20:33.969Z,1978.83
2019-04-25T02:23:04.248Z,1999.90
2019-04-25T02:25:34.264Z,1944.53
2019-04-25T02:28:05.619Z,1990.70
2019-04-25T02:30:36.566Z,1923.43
2019-04-25T02:33:08.773Z,1999.90
2019-04-25T02:35:36.289Z,1999.90
2019-04-25T02:38:08.824Z,1999.90
2019-04-25T02:40:36.007Z,1878.97
2019-04-25T02:43:08.003Z,1999.90
2019-04-25T02:45:35.628Z,1895.40
2019-04-25T02:48:07.196Z,1936.10
2019-04-25T02:50:37.913Z,1977.27
2019-04-25T02:53:08.557Z,1999.90
2019-04-25T02:55:37.883Z,1948.70
2019-04-25T02:58:09.997Z,1912.83
2019-04-25T03:00:51.657Z,1899.07
2019-04-25T03:03:08.700Z,1850.90
2019-04-25T03:05:38.051Z,1812.27
2019-04-25T03:08:10.094Z,1801.00
2019-04-25T03:10:37.758Z,1817.77
2019-04-25T03:13:10.272Z,1839.03
2019-04-25T03:15:37.466Z,1829.73
2019-04-25T03:18:11.038Z,1724.80
2019-04-25T03:20:38.806Z,1717.30
2019-04-25T03:23:10.727Z,1640.00
2019-04-25T03:25:40.383Z,1715.13
2019-04-25T03:28:09.516Z,1751.30
2019-04-25T03:30:38.547Z,1789.93
2019-04-25T03:33:13.032Z,1835.70
2019-04-25T03:35:38.254Z,1881.50
2019-04-25T03:38:07.342Z,1793.90
2019-04-25T03:40:36.384Z,1727.57
2019-04-25T03:43:06.219Z,1774.97
2019-04-25T03:45:36.154Z,1839.87
2019-04-25T03:48:06.405Z,1704.17
2019-04-25T03:50:35.487Z,1796.90
2019-04-25T03:53:05.448Z,1808.83
2019-04-25T03:55:35.947Z,1816.90
2019-04-25T03:58:07.932Z,1770.97
2019-04-25T04:00:36.462Z,1809.90
2019-04-25T04:03:06.648Z,1808.03
2019-04-25T04:05:36.141Z,1818.33
2019-04-25T04:08:06.225Z,1688.50
2019-04-25T04:10:35.418Z,1860.97
2019-04-25T04:13:06.287Z,1770.53
2019-04-25T04:15:35.243Z,1735.50
2019-04-25T04:18:06.977Z,1817.17
2019-04-25T04:20:37.789Z,1999.90
2019-04-25T04:23:09.195Z,1999.90
2019-04-25T04:25:38.237Z,1998.17
2019-04-25T04:28:07.675Z,1987.30
2019-04-25T04:30:36.713Z,1916.03
2019-04-25T04:33:06.893Z,1780.90
2019-04-25T04:35:35.925Z,1623.27
2019-04-25T04:38:04.988Z,1542.43
2019-04-25T04:40:34.373Z,1500.27
2019-04-25T04:43:04.874Z,1011.17
2019-04-25T04:45:34.523Z,947.53
2019-04-25T04:48:06.922Z,881.43
2019-04-25T04:50:35.941Z,847.47
2019-04-25T04:53:05.003Z,714.80
2019-04-25T04:55:34.497Z,694.20
2019-04-25T04:58:04.243Z,779.07
2019-04-25T05:00:33.886Z,787.63
2019-04-25T05:03:04.767Z,824.00
2019-04-25T05:05:35.412Z,801.90
2019-04-25T05:08:06.102Z,758.83
2019-04-25T05:10:35.126Z,767.20
2019-04-25T05:13:04.371Z,765.73
2019-04-25T05:15:33.469Z,816.13
2019-04-25T05:18:03.921Z,832.27
2019-04-25T05:20:34.292Z,856.67
2019-04-25T05:23:03.754Z,938.97
2019-04-25T05:25:34.423Z,942.47
2019-04-25T05:28:05.303Z,972.70
2019-04-25T05:30:36.113Z,1015.05
2019-04-25T05:33:05.138Z,1007.33
2019-04-25T05:35:34.197Z,973.85
2019-04-25T05:38:03.457Z,996.70
2019-04-25T05:40:34.226Z,1010.32
2019-04-25T05:43:25.707Z,1039.80
2019-04-25T05:45:54.925Z,990.70
2019-04-25T05:48:25.357Z,1027.63
2019-04-25T05:50:54.575Z,992.58
2019-04-25T05:53:24.150Z,1005.30
2019-04-25T05:55:54.159Z,1008.58
2019-04-25T05:58:25.437Z,1015.15
2019-04-25T06:00:54.483Z,967.83
2019-04-25T06:03:25.372Z,995.37
2019-04-25T06:05:55.374Z,997.10
2019-04-25T06:08:26.816Z,1005.55
2019-04-25T06:10:58.039Z,998.45
2019-04-25T06:13:29.106Z,1014.58
2019-04-25T06:15:59.852Z,1026.85
2019-04-25T06:18:30.600Z,971.00
2019-04-25T06:20:59.600Z,970.95
2019-04-25T06:23:30.329Z,964.98
2019-04-25T06:25:59.364Z,1009.55
2019-04-25T06:28:30.022Z,1020.38
2019-04-25T06:30:59.053Z,1009.70
2019-04-25T06:33:29.044Z,991.40
2019-04-25T06:35:58.042Z,1072.42
2019-04-25T06:38:27.507Z,948.42
2019-04-25T06:40:57.405Z,963.38
2019-04-25T06:43:26.730Z,968.67
2019-04-25T06:45:57.417Z,997.95
2019-04-25T06:48:28.936Z,932.77
2019-04-25T06:50:58.051Z,932.10
2019-04-25T06:53:27.072Z,905.25
2019-04-25T06:55:56.119Z,887.85
2019-04-25T06:58:26.884Z,915.80
2019-04-25T07:01:00.630Z,848.78
2019-04-25T07:03:27.100Z,874.13
2019-04-25T07:05:56.177Z,886.95
2019-04-25T07:08:25.839Z,852.22
2019-04-25T07:10:55.735Z,971.92
2019-04-25T07:13:25.612Z,881.53
2019-04-25T07:15:54.937Z,861.67
2019-04-25T07:18:29.222Z,867.10
2019-04-25T07:20:54.702Z,890.58
2019-04-25T07:23:25.363Z,903.58
2019-04-25T07:25:56.137Z,870.23
2019-04-25T07:28:29.052Z,877.02
2019-04-25T07:30:59.268Z,822.40
2019-04-25T07:33:29.926Z,857.83
2019-04-25T07:35:59.009Z,837.33
2019-04-25T07:38:29.007Z,834.62
2019-04-25T07:40:58.081Z,845.75
2019-04-25T07:43:28.165Z,854.95
2019-04-25T07:45:57.413Z,825.53
2019-04-25T07:48:28.112Z,840.90
2019-04-25T07:50:57.112Z,868.17
2019-04-25T07:53:28.003Z,870.63
2019-04-25T07:55:56.784Z,848.72
2019-04-25T07:58:45.336Z,866.83
2019-04-25T08:00:59.554Z,835.95
2019-04-25T08:03:28.579Z,817.15
2019-04-25T08:05:57.595Z,869.05
2019-04-25T08:08:28.214Z,847.52
2019-04-25T08:10:58.849Z,845.52
2019-04-25T08:13:30.121Z,840.83
2019-04-25T08:16:00.793Z,826.52
2019-04-25T08:18:30.229Z,827.43
2019-04-25T08:20:59.612Z,881.90
2019-04-25T08:23:30.809Z,898.98
2019-04-25T08:26:00.387Z,869.33
2019-04-25T08:28:29.607Z,897.30
2019-04-25T08:30:59.417Z,908.38
2019-04-25T08:33:29.758Z,901.07
2019-04-25T08:36:06.596Z,893.00
2019-04-25T08:38:31.409Z,896.55
2019-04-25T08:41:00.490Z,935.35
2019-04-25T08:43:30.008Z,934.95
2019-04-25T08:45:59.868Z,912.05
2019-04-25T08:48:31.339Z,956.75
2019-04-25T08:51:03.569Z,927.43
2019-04-25T08:53:35.347Z,910.75
2019-04-25T08:56:07.410Z,869.90
2019-04-25T08:58:39.055Z,908.50
2019-04-25T09:01:09.768Z,922.65
2019-04-25T09:03:40.469Z,887.80
2019-04-25T09:06:09.548Z,877.65
2019-04-25T09:08:39.416Z,1045.78
2019-04-25T09:11:08.488Z,936.73
2019-04-25T09:13:38.649Z,963.52
2019-04-25T09:16:08.117Z,1007.77
2019-04-25T09:18:38.134Z,757.33
2019-04-25T09:21:07.370Z,949.85
2019-04-25T09:23:36.814Z,1999.90
2019-04-25T09:26:06.877Z,1785.68
2019-04-25T09:28:38.048Z,911.05
2019-04-25T09:31:06.602Z,878.10
2019-04-25T09:33:36.300Z,1190.58
2019-04-25T09:36:06.922Z,887.50
2019-04-25T09:38:36.851Z,1001.47
2019-04-25T09:41:06.092Z,934.20
2019-04-25T09:43:35.850Z,1169.90
2019-04-25T09:46:06.651Z,1052.10
2019-04-25T09:48:37.543Z,1835.28
2019-04-25T09:51:07.582Z,1137.78
2019-04-25T09:53:43.450Z,900.47
2019-04-25T09:56:10.213Z,913.15
2019-04-25T09:58:40.907Z,1093.33
2019-04-25T10:01:20.936Z,963.75
2019-04-25T10:03:49.991Z,874.83
2019-04-25T10:06:19.579Z,847.42
2019-04-25T10:08:48.644Z,848.17
2019-04-25T10:11:17.737Z,862.97
2019-04-25T10:13:48.309Z,927.55
2019-04-25T10:16:17.335Z,861.08
2019-04-25T10:18:48.023Z,836.50
2019-04-25T10:21:17.459Z,860.95
2019-04-25T10:23:46.788Z,844.33
2019-04-25T10:26:16.296Z,1499.83
2019-04-25T10:28:45.585Z,1999.05
2019-04-25T10:31:14.886Z,906.72
2019-04-25T10:33:46.682Z,877.15
2019-04-25T10:36:14.603Z,863.83
2019-04-25T10:38:46.978Z,863.12
2019-04-25T10:41:14.378Z,855.45
2019-04-25T10:43:44.053Z,936.25
2019-04-25T10:46:14.123Z,875.20
2019-04-25T10:48:44.023Z,1023.23
2019-04-25T10:51:13.881Z,966.80
2019-04-25T10:53:45.454Z,795.30
2019-04-25T10:56:14.213Z,1817.75
2019-04-25T10:58:44.455Z,1034.98
2019-04-25T11:01:15.330Z,982.95
2019-04-25T11:03:46.397Z,829.72
2019-04-25T11:06:17.319Z,1059.33
2019-04-25T11:08:47.053Z,1488.40
2019-04-25T11:11:16.213Z,810.75
2019-04-25T11:13:45.342Z,857.58
2019-04-25T11:16:14.758Z,899.05
2019-04-25T11:18:45.050Z,868.90
2019-04-25T11:21:14.650Z,836.40
2019-04-25T11:23:46.921Z,854.10
2019-04-25T11:26:14.316Z,832.85
2019-04-25T11:28:45.321Z,827.92
2019-04-25T11:31:16.226Z,849.62
2019-04-25T11:33:45.268Z,853.20
2019-04-25T11:36:14.311Z,854.30
2019-04-25T11:38:45.323Z,869.92
2019-04-25T11:41:16.110Z,899.65
2019-04-25T11:43:46.418Z,880.78
2019-04-25T11:46:16.562Z,873.55
2019-04-25T11:48:46.402Z,914.98
2019-04-25T11:51:15.557Z,902.82
2019-04-25T11:53:45.977Z,923.12
2019-04-25T11:56:15.254Z,877.48
2019-04-25T11:58:45.640Z,879.65
2019-04-25T12:01:15.512Z,889.30
2019-04-25T12:03:46.603Z,920.50
2019-04-25T12:06:16.730Z,867.05
2019-04-25T12:08:47.722Z,921.37
2019-04-25T12:11:16.784Z,880.18
2019-04-25T12:13:46.927Z,843.37
2019-04-25T12:16:16.520Z,812.33
2019-04-25T12:18:48.117Z,812.03
2019-04-25T12:21:16.171Z,822.78
2019-04-25T12:23:47.198Z,830.03
2019-04-25T12:26:16.022Z,859.15
2019-04-25T12:28:45.909Z,862.20
2019-04-25T12:31:14.965Z,827.28
2019-04-25T12:33:47.270Z,773.97
2019-04-25T12:36:14.701Z,796.03
2019-04-25T12:38:45.117Z,879.65
2019-04-25T12:41:14.426Z,819.43
2019-04-25T12:43:45.756Z,822.85
2019-04-25T12:46:16.521Z,814.70
2019-04-25T12:48:46.033Z,895.27
2019-04-25T12:51:16.075Z,791.62
2019-04-25T12:53:46.502Z,797.27
2019-04-25T12:56:15.560Z,827.35
2019-04-25T12:58:44.692Z,822.08
2019-04-25T13:01:14.796Z,809.60
2019-04-25T13:03:43.984Z,794.65
2019-04-25T13:06:13.655Z,803.25
2019-04-25T13:12:00.267Z,848.32
2019-04-25T13:14:29.339Z,852.00
2019-04-25T13:16:58.365Z,840.95
2019-04-25T13:19:27.465Z,836.28
2019-04-25T13:21:57.090Z,820.65
2019-04-25T13:24:26.993Z,831.60
2019-04-25T13:26:58.536Z,930.85
2019-04-25T13:29:29.290Z,885.82
2019-04-25T13:32:01.013Z,789.27
2019-04-25T13:34:36.397Z,790.73
2019-04-25T13:37:03.495Z,786.10
2019-04-25T13:39:34.190Z,803.60
2019-04-25T13:42:05.544Z,847.98
2019-04-25T13:44:35.020Z,855.10
2019-04-25T13:47:05.193Z,846.95
2019-04-25T13:49:34.226Z,831.38
2019-04-25T13:52:04.898Z,819.22
2019-04-25T13:54:35.021Z,844.13
2019-04-25T13:57:04.046Z,859.35
2019-04-25T13:59:33.089Z,843.22
2019-04-25T14:02:04.099Z,839.70
2019-04-25T14:04:35.448Z,842.90
2019-04-25T14:07:04.911Z,837.85
2019-04-25T14:09:34.766Z,842.10
2019-04-25T14:12:05.617Z,836.17
2019-04-25T14:14:36.092Z,884.83
2019-04-25T14:17:07.165Z,896.00
2019-04-25T14:19:37.873Z,811.48
2019-04-25T14:22:06.969Z,858.58
2019-04-25T14:24:36.077Z,900.60
2019-04-25T14:27:06.549Z,856.72
2019-04-25T14:29:35.677Z,881.23
2019-04-25T14:32:06.428Z,841.70
2019-04-25T14:34:35.466Z,797.65
2019-04-25T14:37:04.648Z,813.95
2019-04-25T14:39:33.757Z,821.83
2019-04-25T14:42:02.793Z,841.65
2019-04-25T14:44:31.921Z,831.38
2019-04-25T14:47:00.848Z,790.58
2019-04-25T14:49:30.522Z,809.98
2019-04-25T14:51:59.630Z,827.50
2019-04-25T14:54:30.709Z,843.20
2019-04-25T14:57:01.396Z,832.73
2019-04-25T14:59:31.475Z,873.60
2019-04-25T15:02:00.494Z,855.20
2019-04-25T15:04:30.099Z,850.28
2019-04-25T15:06:59.221Z,843.30
2019-04-25T15:09:28.842Z,827.08
2019-04-25T15:11:57.850Z,859.80
2019-04-25T15:14:26.982Z,843.05
2019-04-25T15:16:55.993Z,843.30
2019-04-25T15:19:25.433Z,823.20
2019-04-25T15:21:54.538Z,879.90
2019-04-25T15:24:23.902Z,853.08
2019-04-25T15:26:53.022Z,852.73
2019-04-25T15:29:22.058Z,875.05
2019-04-25T15:31:56.043Z,889.63
2019-04-25T15:34:23.362Z,849.68
2019-04-25T15:36:54.070Z,853.33
2019-04-25T15:39:24.938Z,823.27
2019-04-25T15:41:55.750Z,832.50
2019-04-25T15:44:26.658Z,865.08
2019-04-25T15:46:57.315Z,849.92
2019-04-25T15:49:26.322Z,876.88
2019-04-25T15:51:55.378Z,921.00
2019-04-25T15:54:25.304Z,867.42
2019-04-25T15:56:56.196Z,927.10
2019-04-25T15:59:25.221Z,927.95
2019-04-25T16:01:54.289Z,909.17
2019-04-25T16:04:23.382Z,881.40
2019-04-25T16:06:53.392Z,978.05
2019-04-25T16:09:22.577Z,939.35
2019-04-25T16:11:51.640Z,905.35
2019-04-25T16:14:20.788Z,967.62
2019-04-25T16:16:49.786Z,973.72
2019-04-25T16:19:18.801Z,1011.60
2019-04-25T16:21:47.922Z,979.95
2019-04-25T16:24:16.938Z,986.45
2019-04-25T16:26:46.182Z,961.73
2019-04-25T16:29:15.292Z,974.30
2019-04-25T16:31:44.455Z,935.65
2019-04-25T16:34:13.497Z,983.23
2019-04-25T16:36:42.616Z,968.00
2019-04-25T16:39:13.370Z,897.15
2019-04-25T16:41:44.125Z,973.72
2019-04-25T16:44:14.781Z,950.20
2019-04-25T16:46:43.864Z,925.17
2019-04-25T16:49:12.966Z,930.78
2019-04-25T16:51:42.388Z,934.65
2019-04-25T16:54:11.392Z,931.80
2019-04-25T16:56:40.420Z,897.42
2019-04-25T16:59:10.414Z,895.12
2019-04-25T17:01:39.761Z,890.27
2019-04-25T17:04:10.001Z,901.55
2019-04-25T17:06:39.213Z,908.85
2019-04-25T17:09:08.366Z,881.50
2019-04-25T17:12:03.845Z,879.57
2019-04-25T17:14:35.343Z,872.42
2019-04-25T17:17:06.256Z,925.13
2019-04-25T17:19:36.935Z,954.10
2019-04-25T17:22:06.094Z,911.28
2019-04-25T17:24:35.154Z,935.02
2019-04-25T17:27:05.633Z,922.38
2019-04-25T17:29:34.742Z,951.65
2019-04-25T17:32:05.586Z,986.35
2019-04-25T17:34:36.638Z,998.27
2019-04-25T17:37:07.434Z,1014.12
2019-04-25T17:39:38.173Z,1013.60
2019-04-25T17:42:07.295Z,1015.17
2019-04-25T17:44:36.392Z,1025.65
2019-04-25T17:47:06.468Z,983.30
2019-04-25T17:49:36.721Z,1016.38
2019-04-25T17:52:07.908Z,1024.60
2019-04-25T17:54:36.941Z,1027.73
2019-04-25T17:57:07.265Z,1030.42
2019-04-25T17:59:36.901Z,981.98
2019-04-25T18:02:06.214Z,1000.02
2019-04-25T18:04:35.422Z,1019.33
2019-04-25T18:07:04.781Z,1010.02
2019-04-25T18:09:34.452Z,1021.47
2019-04-25T18:12:04.546Z,1001.92
2019-04-25T18:14:35.216Z,1051.43
2019-04-25T18:17:04.238Z,1024.83
2019-04-25T18:19:35.154Z,1046.03
2019-04-25T18:22:06.806Z,1016.85
2019-04-25T18:24:37.747Z,1011.65
2019-04-25T18:27:08.353Z,996.35
2019-04-25T18:29:37.570Z,1010.60
2019-04-25T18:32:06.621Z,1026.40
2019-04-25T18:34:37.511Z,1025.08
2019-04-25T18:37:08.240Z,1057.33
2019-04-25T18:39:39.846Z,1034.18
2019-04-25T18:42:11.598Z,973.30
2019-04-25T18:44:40.640Z,1002.12
2019-04-25T18:47:09.662Z,995.90
2019-04-25T18:49:39.309Z,992.65
2019-04-25T18:52:09.970Z,997.70
2019-04-25T18:54:41.148Z,995.20
2019-04-25T18:57:11.819Z,977.35
2019-04-25T18:59:42.573Z,972.42
2019-04-25T19:02:11.642Z,938.08
2019-04-25T19:04:42.342Z,977.37
2019-04-25T19:07:22.106Z,936.45
2019-04-25T19:09:42.873Z,964.08
2019-04-25T19:12:12.060Z,926.35
2019-04-25T19:14:41.338Z,938.78
2019-04-25T19:17:10.709Z,997.57
2019-04-25T19:19:39.787Z,1003.02
2019-04-25T19:22:08.870Z,971.35
2019-04-25T19:24:37.910Z,1001.25
2019-04-25T19:27:06.962Z,988.78
2019-04-25T19:29:35.997Z,975.07
2019-04-25T19:32:05.138Z,988.55
2019-04-25T19:34:34.435Z,988.30
2019-04-25T19:37:04.544Z,992.90
2019-04-25T19:39:35.223Z,1028.70
2019-04-25T19:42:06.117Z,1014.62
2019-04-25T19:44:35.160Z,995.57
2019-04-25T19:47:05.181Z,984.65
2019-04-25T19:49:34.209Z,975.02
2019-04-25T19:52:03.321Z,958.07
2019-04-25T19:54:32.406Z,986.48
2019-04-25T19:57:01.450Z,957.83
2019-04-25T19:59:30.538Z,979.55
2019-04-25T20:02:01.216Z,995.63
2019-04-25T20:04:31.949Z,1019.03
2019-04-25T20:07:02.651Z,956.33
2019-04-25T20:09:33.297Z,973.93
2019-04-25T20:12:02.795Z,953.20
2019-04-25T20:14:31.815Z,1037.13
2019-04-25T20:17:00.864Z,808.50
2019-04-25T20:19:29.873Z,876.30
2019-04-25T20:21:58.917Z,878.60
2019-04-25T20:24:27.972Z,926.27
2019-04-25T20:26:56.989Z,899.60
2019-04-25T20:29:26.180Z,884.77
2019-04-25T20:31:55.224Z,1999.90
2019-04-25T20:34:24.289Z,1999.90
2019-04-25T20:36:53.695Z,1006.00
2019-04-25T20:39:22.742Z,1428.18
2019-04-25T20:41:51.939Z,991.53
2019-04-25T20:44:21.010Z,1999.90
2019-04-25T20:46:50.567Z,892.70
2019-04-25T20:49:19.678Z,927.83
2019-04-25T20:51:48.789Z,953.03
2019-04-25T20:54:17.802Z,1027.27
2019-04-25T20:56:49.774Z,975.63
2019-04-25T20:59:19.775Z,1406.03
2019-04-25T21:01:49.663Z,894.67
2019-04-25T21:04:20.377Z,942.47
2019-04-25T21:06:49.412Z,1619.37
2019-04-25T21:09:20.846Z,1304.50
2019-04-25T21:11:49.946Z,1638.57
2019-04-25T21:14:20.598Z,1999.90
2019-04-25T21:16:51.842Z,1380.10
2019-04-25T21:19:22.609Z,1165.33
2019-04-25T21:21:51.817Z,883.27
2019-04-25T21:24:20.793Z,1999.90
2019-04-25T21:26:50.219Z,945.43
2019-04-25T21:29:20.351Z,821.47
2019-04-25T21:31:51.181Z,874.20
2019-04-25T21:34:26.599Z,948.30
2019-04-25T21:36:51.273Z,882.63
2019-04-25T21:39:22.818Z,842.00
2019-04-25T21:41:53.658Z,1355.53
2019-04-25T21:44:23.007Z,1143.30
2019-04-25T21:46:52.198Z,824.43
2019-04-25T21:49:22.249Z,1443.67
2019-04-25T21:51:51.249Z,1376.60
2019-04-25T21:54:20.282Z,1999.90
2019-04-25T21:56:49.497Z,1345.47
2019-04-25T21:59:18.759Z,760.37
2019-04-25T22:01:47.758Z,819.07
2019-04-25T22:04:16.886Z,988.13
2019-04-25T22:06:46.168Z,806.00
2019-04-25T22:09:17.905Z,764.30
2019-04-25T22:11:47.222Z,766.20
2019-04-25T22:14:16.537Z,768.40
2019-04-25T22:16:45.905Z,777.93
2019-04-25T22:19:15.626Z,723.43
2019-04-25T22:21:44.838Z,768.67
2019-04-25T22:24:14.740Z,758.17
2019-04-25T22:26:45.161Z,740.93
2019-04-25T22:29:14.316Z,749.47
2019-04-25T22:31:43.362Z,721.67
2019-04-25T22:34:14.091Z,756.43
2019-04-25T22:36:43.298Z,727.87
2019-04-25T22:39:13.068Z,711.23
2019-04-25T22:41:46.262Z,758.23
2019-04-25T22:44:15.959Z,822.70
2019-04-25T22:46:45.251Z,707.30
2019-04-25T22:49:14.295Z,745.60
2019-04-25T22:51:43.377Z,723.03
2019-04-25T22:54:12.681Z,766.97
2019-04-25T22:56:41.685Z,760.47
2019-04-25T22:59:11.153Z,730.80
2019-04-25T23:01:41.982Z,726.87
2019-04-25T23:04:12.686Z,743.33
2019-04-25T23:06:41.898Z,733.00
2019-04-25T23:09:10.950Z,761.90
2019-04-25T23:11:41.578Z,735.90
2019-04-25T23:14:10.926Z,754.77
2019-04-25T23:16:39.926Z,707.47
2019-04-25T23:19:09.277Z,717.00
2019-04-25T23:21:38.706Z,727.37
2019-04-25T23:24:07.839Z,733.30
2019-04-25T23:26:37.093Z,770.73
2019-04-25T23:29:08.121Z,735.10
2019-04-25T23:31:38.773Z,704.77
2019-04-25T23:34:08.753Z,765.40
2019-04-25T23:36:37.806Z,685.73
2019-04-25T23:39:09.406Z,747.80
2019-04-25T23:41:38.749Z,742.43
2019-04-25T23:44:07.981Z,807.43
2019-04-25T23:46:37.289Z,779.33
2019-04-25T23:49:07.393Z,734.40
2019-04-25T23:51:36.814Z,793.30
2019-04-25T23:54:07.467Z,775.60
2019-04-25T23:56:36.551Z,769.80
2019-04-25T23:59:05.775Z,771.77
